sensor_id;sensor_type;location;lat;lon;timestamp;temperature;humidity
49148;DHT22;41980;45.550;12.070;2023-03-14T00:02:38;12.30;67.50
49148;DHT22;41980;45.550;12.070;2023-03-14T00:08:41;12.30;67.90
49148;DHT22;41980;45.550;12.070;2023-03-14T00:14:43;12.20;67.90
49148;DHT22;41980;45.550;12.070;2023-03-14T00:20:45;12.20;70.00
49148;DHT22;41980;45.550;12.070;2023-03-14T00:26:46;12.20;69.00
49148;DHT22;41980;45.550;12.070;2023-03-14T00:32:48;12.20;68.20
49148;DHT22;41980;45.550;12.070;2023-03-14T00:38:51;12.20;68.80
49148;DHT22;41980;45.550;12.070;2023-03-14T00:44:53;12.20;69.60
49148;DHT22;41980;45.550;12.070;2023-03-14T00:50:55;12.20;69.40
49148;DHT22;41980;45.550;12.070;2023-03-14T00:56:57;12.20;71.00
49148;DHT22;41980;45.550;12.070;2023-03-14T01:02:59;12.20;70.90
49148;DHT22;41980;45.550;12.070;2023-03-14T01:09:01;12.20;70.00
49148;DHT22;41980;45.550;12.070;2023-03-14T01:15:02;12.20;70.70
49148;DHT22;41980;45.550;12.070;2023-03-14T01:21:12;12.10;73.10
49148;DHT22;41980;45.550;12.070;2023-03-14T01:27:15;12.10;70.50
49148;DHT22;41980;45.550;12.070;2023-03-14T01:33:17;12.10;71.60
49148;DHT22;41980;45.550;12.070;2023-03-14T01:39:20;12.10;71.90
49148;DHT22;41980;45.550;12.070;2023-03-14T01:57:43;12.10;71.70
49148;DHT22;41980;45.550;12.070;2023-03-14T02:03:52;12.10;73.30
49148;DHT22;41980;45.550;12.070;2023-03-14T02:09:56;12.00;72.40
49148;DHT22;41980;45.550;12.070;2023-03-14T02:16:03;12.00;73.10
49148;DHT22;41980;45.550;12.070;2023-03-14T02:22:14;12.00;74.70
49148;DHT22;41980;45.550;12.070;2023-03-14T02:28:24;12.00;72.80
49148;DHT22;41980;45.550;12.070;2023-03-14T02:34:31;12.00;72.70
49148;DHT22;41980;45.550;12.070;2023-03-14T02:40:33;12.10;73.10
49148;DHT22;41980;45.550;12.070;2023-03-14T02:46:36;12.00;73.30
49148;DHT22;41980;45.550;12.070;2023-03-14T02:52:38;12.10;72.80
49148;DHT22;41980;45.550;12.070;2023-03-14T02:58:39;12.10;72.60
49148;DHT22;41980;45.550;12.070;2023-03-14T03:04:54;12.10;72.40
49148;DHT22;41980;45.550;12.070;2023-03-14T03:10:57;12.00;73.10
49148;DHT22;41980;45.550;12.070;2023-03-14T03:16:59;12.00;73.40
49148;DHT22;41980;45.550;12.070;2023-03-14T03:23:01;12.10;73.20
49148;DHT22;41980;45.550;12.070;2023-03-14T03:29:03;12.10;73.30
49148;DHT22;41980;45.550;12.070;2023-03-14T03:35:05;12.10;72.30
49148;DHT22;41980;45.550;12.070;2023-03-14T03:41:10;12.10;74.40
49148;DHT22;41980;45.550;12.070;2023-03-14T03:47:13;12.10;74.10
49148;DHT22;41980;45.550;12.070;2023-03-14T03:53:15;12.10;73.80
49148;DHT22;41980;45.550;12.070;2023-03-14T03:59:18;12.10;76.60
49148;DHT22;41980;45.550;12.070;2023-03-14T04:05:20;12.00;74.70
49148;DHT22;41980;45.550;12.070;2023-03-14T04:11:30;12.10;75.90
49148;DHT22;41980;45.550;12.070;2023-03-14T04:17:35;12.00;74.50
49148;DHT22;41980;45.550;12.070;2023-03-14T04:23:37;12.00;74.80
49148;DHT22;41980;45.550;12.070;2023-03-14T04:29:41;12.00;74.60
49148;DHT22;41980;45.550;12.070;2023-03-14T04:35:45;12.00;74.20
49148;DHT22;41980;45.550;12.070;2023-03-14T04:41:50;12.00;74.30
49148;DHT22;41980;45.550;12.070;2023-03-14T04:47:51;12.00;74.90
49148;DHT22;41980;45.550;12.070;2023-03-14T04:53:55;11.90;75.90
49148;DHT22;41980;45.550;12.070;2023-03-14T04:59:57;11.80;75.90
49148;DHT22;41980;45.550;12.070;2023-03-14T05:06:03;11.70;76.30
49148;DHT22;41980;45.550;12.070;2023-03-14T05:12:08;11.70;77.80
49148;DHT22;41980;45.550;12.070;2023-03-14T05:18:26;11.60;78.20
49148;DHT22;41980;45.550;12.070;2023-03-14T05:24:31;11.60;77.40
49148;DHT22;41980;45.550;12.070;2023-03-14T05:30:36;11.60;76.80
49148;DHT22;41980;45.550;12.070;2023-03-14T05:36:54;11.60;77.00
49148;DHT22;41980;45.550;12.070;2023-03-14T05:43:01;11.50;78.50
49148;DHT22;41980;45.550;12.070;2023-03-14T05:49:06;11.50;77.20
49148;DHT22;41980;45.550;12.070;2023-03-14T05:55:19;11.50;79.30
49148;DHT22;41980;45.550;12.070;2023-03-14T06:01:25;11.50;77.30
49148;DHT22;41980;45.550;12.070;2023-03-14T06:07:30;11.60;77.70
49148;DHT22;41980;45.550;12.070;2023-03-14T06:13:32;11.50;78.40
49148;DHT22;41980;45.550;12.070;2023-03-14T06:19:34;11.50;78.00
49148;DHT22;41980;45.550;12.070;2023-03-14T06:25:37;11.50;78.20
49148;DHT22;41980;45.550;12.070;2023-03-14T06:31:39;11.60;77.60
49148;DHT22;41980;45.550;12.070;2023-03-14T06:37:43;11.70;77.40
49148;DHT22;41980;45.550;12.070;2023-03-14T06:43:45;11.80;77.80
49148;DHT22;41980;45.550;12.070;2023-03-14T06:49:49;11.80;77.90
49148;DHT22;41980;45.550;12.070;2023-03-14T06:55:51;11.80;78.00
49148;DHT22;41980;45.550;12.070;2023-03-14T07:01:54;11.80;78.50
49148;DHT22;41980;45.550;12.070;2023-03-14T07:07:56;11.80;77.60
49148;DHT22;41980;45.550;12.070;2023-03-14T07:13:59;11.80;78.00
49148;DHT22;41980;45.550;12.070;2023-03-14T07:20:01;11.80;77.70
49148;DHT22;41980;45.550;12.070;2023-03-14T07:26:06;11.70;77.50
49148;DHT22;41980;45.550;12.070;2023-03-14T07:32:09;11.70;78.00
49148;DHT22;41980;45.550;12.070;2023-03-14T07:38:11;11.50;79.30
49148;DHT22;41980;45.550;12.070;2023-03-14T07:44:26;11.40;80.90
49148;DHT22;41980;45.550;12.070;2023-03-14T07:50:29;11.30;81.10
49148;DHT22;41980;45.550;12.070;2023-03-14T07:56:31;11.40;81.90
49148;DHT22;41980;45.550;12.070;2023-03-14T08:02:33;11.40;80.20
49148;DHT22;41980;45.550;12.070;2023-03-14T08:08:35;11.50;80.10
49148;DHT22;41980;45.550;12.070;2023-03-14T08:14:37;11.70;80.20
49148;DHT22;41980;45.550;12.070;2023-03-14T08:20:40;11.60;80.50
49148;DHT22;41980;45.550;12.070;2023-03-14T08:26:42;11.60;81.40
49148;DHT22;41980;45.550;12.070;2023-03-14T08:32:44;11.70;81.30
49148;DHT22;41980;45.550;12.070;2023-03-14T08:38:46;11.80;81.50
49148;DHT22;41980;45.550;12.070;2023-03-14T08:44:48;11.80;82.20
49148;DHT22;41980;45.550;12.070;2023-03-14T08:50:50;11.90;82.30
49148;DHT22;41980;45.550;12.070;2023-03-14T08:56:52;11.90;83.00
49148;DHT22;41980;45.550;12.070;2023-03-14T09:02:54;12.00;82.30
49148;DHT22;41980;45.550;12.070;2023-03-14T09:08:56;12.10;83.20
49148;DHT22;41980;45.550;12.070;2023-03-14T09:14:58;12.00;81.40
49148;DHT22;41980;45.550;12.070;2023-03-14T09:21:01;12.00;82.50
49148;DHT22;41980;45.550;12.070;2023-03-14T09:27:03;12.00;81.30
49148;DHT22;41980;45.550;12.070;2023-03-14T09:33:05;12.00;83.10
49148;DHT22;41980;45.550;12.070;2023-03-14T09:39:07;12.20;82.20
49148;DHT22;41980;45.550;12.070;2023-03-14T09:45:17;12.20;82.90
49148;DHT22;41980;45.550;12.070;2023-03-14T09:51:20;12.20;81.90
49148;DHT22;41980;45.550;12.070;2023-03-14T09:57:27;12.20;82.30
49148;DHT22;41980;45.550;12.070;2023-03-14T10:03:31;12.20;82.80
49148;DHT22;41980;45.550;12.070;2023-03-14T10:09:35;12.20;82.10
49148;DHT22;41980;45.550;12.070;2023-03-14T10:15:38;12.20;81.50
49148;DHT22;41980;45.550;12.070;2023-03-14T10:21:44;12.30;81.90
49148;DHT22;41980;45.550;12.070;2023-03-14T10:27:46;12.30;82.00
49148;DHT22;41980;45.550;12.070;2023-03-14T10:40:00;12.20;83.10
49148;DHT22;41980;45.550;12.070;2023-03-14T10:46:11;12.20;82.50
49148;DHT22;41980;45.550;12.070;2023-03-14T10:52:34;12.20;82.00
49148;DHT22;41980;45.550;12.070;2023-03-14T10:58:42;12.20;82.00
49148;DHT22;41980;45.550;12.070;2023-03-14T11:11:06;12.10;83.20
49148;DHT22;41980;45.550;12.070;2023-03-14T11:23:24;12.10;83.10
49148;DHT22;41980;45.550;12.070;2023-03-14T11:29:36;12.10;83.10
49148;DHT22;41980;45.550;12.070;2023-03-14T11:41:46;12.30;82.00
49148;DHT22;41980;45.550;12.070;2023-03-14T11:47:57;12.50;81.80
49148;DHT22;41980;45.550;12.070;2023-03-14T12:00:18;13.00;80.60
49148;DHT22;41980;45.550;12.070;2023-03-14T12:06:26;13.00;80.40
49148;DHT22;41980;45.550;12.070;2023-03-14T12:12:31;13.00;80.90
49148;DHT22;41980;45.550;12.070;2023-03-14T12:18:36;13.00;80.70
49148;DHT22;41980;45.550;12.070;2023-03-14T12:24:47;13.00;80.90
49148;DHT22;41980;45.550;12.070;2023-03-14T12:30:50;12.90;80.80
49148;DHT22;41980;45.550;12.070;2023-03-14T12:36:55;12.80;80.80
49148;DHT22;41980;45.550;12.070;2023-03-14T12:43:02;12.80;80.80
49148;DHT22;41980;45.550;12.070;2023-03-14T12:49:08;12.80;81.90
49148;DHT22;41980;45.550;12.070;2023-03-14T12:55:21;12.90;80.80
49148;DHT22;41980;45.550;12.070;2023-03-14T13:01:26;13.10;80.30
49148;DHT22;41980;45.550;12.070;2023-03-14T13:07:33;13.20;80.40
49148;DHT22;41980;45.550;12.070;2023-03-14T13:13:40;13.20;80.30
49148;DHT22;41980;45.550;12.070;2023-03-14T13:19:43;13.30;79.70
49148;DHT22;41980;45.550;12.070;2023-03-14T13:25:51;13.50;80.90
49148;DHT22;41980;45.550;12.070;2023-03-14T13:31:55;13.80;79.70
49148;DHT22;41980;45.550;12.070;2023-03-14T13:38:01;13.90;80.00
49148;DHT22;41980;45.550;12.070;2023-03-14T13:44:07;13.90;79.30
49148;DHT22;41980;45.550;12.070;2023-03-14T13:50:15;13.80;79.10
49148;DHT22;41980;45.550;12.070;2023-03-14T13:56:20;13.80;79.20
49148;DHT22;41980;45.550;12.070;2023-03-14T14:02:23;13.90;79.50
49148;DHT22;41980;45.550;12.070;2023-03-14T14:08:26;13.90;79.70
49148;DHT22;41980;45.550;12.070;2023-03-14T14:14:33;13.90;79.50
49148;DHT22;41980;45.550;12.070;2023-03-14T14:20:40;13.90;79.20
49148;DHT22;41980;45.550;12.070;2023-03-14T14:26:50;13.90;79.30
49148;DHT22;41980;45.550;12.070;2023-03-14T14:32:52;13.90;79.40
49148;DHT22;41980;45.550;12.070;2023-03-14T14:38:59;13.90;80.00
49148;DHT22;41980;45.550;12.070;2023-03-14T14:45:03;13.80;80.50
49148;DHT22;41980;45.550;12.070;2023-03-14T14:51:06;13.90;79.60
49148;DHT22;41980;45.550;12.070;2023-03-14T14:57:16;14.00;79.40
49148;DHT22;41980;45.550;12.070;2023-03-14T15:03:19;13.90;79.80
49148;DHT22;41980;45.550;12.070;2023-03-14T15:09:21;13.70;80.10
49148;DHT22;41980;45.550;12.070;2023-03-14T15:15:23;13.70;80.00
49148;DHT22;41980;45.550;12.070;2023-03-14T15:21:27;13.70;79.80
49148;DHT22;41980;45.550;12.070;2023-03-14T15:27:31;13.70;80.10
49148;DHT22;41980;45.550;12.070;2023-03-14T15:33:34;13.60;79.90
49148;DHT22;41980;45.550;12.070;2023-03-14T15:39:36;13.50;80.20
49148;DHT22;41980;45.550;12.070;2023-03-14T15:45:38;13.50;80.50
49148;DHT22;41980;45.550;12.070;2023-03-14T15:51:40;13.50;80.20
49148;DHT22;41980;45.550;12.070;2023-03-14T15:57:43;13.50;80.10
49148;DHT22;41980;45.550;12.070;2023-03-14T16:03:46;13.50;80.00
49148;DHT22;41980;45.550;12.070;2023-03-14T16:09:48;13.50;79.80
49148;DHT22;41980;45.550;12.070;2023-03-14T16:15:55;13.40;80.20
49148;DHT22;41980;45.550;12.070;2023-03-14T16:21:58;13.20;80.00
49148;DHT22;41980;45.550;12.070;2023-03-14T16:28:00;13.20;80.60
49148;DHT22;41980;45.550;12.070;2023-03-14T16:34:02;13.10;80.20
49148;DHT22;41980;45.550;12.070;2023-03-14T16:40:06;13.20;79.70
49148;DHT22;41980;45.550;12.070;2023-03-14T16:46:13;13.10;79.70
49148;DHT22;41980;45.550;12.070;2023-03-14T16:52:17;13.20;80.10
49148;DHT22;41980;45.550;12.070;2023-03-14T16:58:19;13.10;79.90
49148;DHT22;41980;45.550;12.070;2023-03-14T17:04:23;13.10;80.20
49148;DHT22;41980;45.550;12.070;2023-03-14T17:10:25;13.10;80.30
49148;DHT22;41980;45.550;12.070;2023-03-14T17:16:28;13.00;80.50
49148;DHT22;41980;45.550;12.070;2023-03-14T17:22:32;13.10;80.40
49148;DHT22;41980;45.550;12.070;2023-03-14T17:28:35;13.00;80.50
49148;DHT22;41980;45.550;12.070;2023-03-14T17:34:37;13.10;80.30
49148;DHT22;41980;45.550;12.070;2023-03-14T17:40:39;13.10;80.20
49148;DHT22;41980;45.550;12.070;2023-03-14T17:46:41;13.10;80.60
49148;DHT22;41980;45.550;12.070;2023-03-14T17:52:43;13.00;80.60
49148;DHT22;41980;45.550;12.070;2023-03-14T17:58:45;13.00;81.00
49148;DHT22;41980;45.550;12.070;2023-03-14T18:04:47;13.00;80.40
49148;DHT22;41980;45.550;12.070;2023-03-14T18:10:53;13.00;80.40
49148;DHT22;41980;45.550;12.070;2023-03-14T18:16:56;12.90;81.40
49148;DHT22;41980;45.550;12.070;2023-03-14T18:22:58;13.00;80.80
49148;DHT22;41980;45.550;12.070;2023-03-14T18:29:02;12.90;80.40
49148;DHT22;41980;45.550;12.070;2023-03-14T18:35:05;12.90;80.40
49148;DHT22;41980;45.550;12.070;2023-03-14T18:41:09;12.90;80.40
49148;DHT22;41980;45.550;12.070;2023-03-14T18:47:12;12.90;80.90
49148;DHT22;41980;45.550;12.070;2023-03-14T18:53:14;12.90;80.80
49148;DHT22;41980;45.550;12.070;2023-03-14T18:59:16;12.90;81.30
49148;DHT22;41980;45.550;12.070;2023-03-14T19:05:18;12.90;80.50
49148;DHT22;41980;45.550;12.070;2023-03-14T19:11:20;12.80;80.70
49148;DHT22;41980;45.550;12.070;2023-03-14T19:17:22;12.70;80.60
49148;DHT22;41980;45.550;12.070;2023-03-14T19:23:24;12.70;81.20
49148;DHT22;41980;45.550;12.070;2023-03-14T19:29:27;12.70;80.60
49148;DHT22;41980;45.550;12.070;2023-03-14T19:35:29;12.70;80.50
49148;DHT22;41980;45.550;12.070;2023-03-14T19:41:32;12.70;80.40
49148;DHT22;41980;45.550;12.070;2023-03-14T19:47:34;12.60;81.70
49148;DHT22;41980;45.550;12.070;2023-03-14T19:53:37;12.50;80.40
49148;DHT22;41980;45.550;12.070;2023-03-14T19:59:39;12.40;80.60
49148;DHT22;41980;45.550;12.070;2023-03-14T20:05:41;12.30;81.00
49148;DHT22;41980;45.550;12.070;2023-03-14T20:11:45;12.20;81.10
49148;DHT22;41980;45.550;12.070;2023-03-14T20:17:48;12.10;81.20
49148;DHT22;41980;45.550;12.070;2023-03-14T20:23:50;12.00;82.80
49148;DHT22;41980;45.550;12.070;2023-03-14T20:29:55;11.90;81.80
49148;DHT22;41980;45.550;12.070;2023-03-14T20:35:59;11.90;81.10
49148;DHT22;41980;45.550;12.070;2023-03-14T20:42:01;11.80;81.50
49148;DHT22;41980;45.550;12.070;2023-03-14T20:48:03;11.80;81.50
49148;DHT22;41980;45.550;12.070;2023-03-14T20:54:05;11.80;82.10
49148;DHT22;41980;45.550;12.070;2023-03-14T21:00:10;11.80;82.10
49148;DHT22;41980;45.550;12.070;2023-03-14T21:06:14;11.70;83.10
49148;DHT22;41980;45.550;12.070;2023-03-14T21:12:16;11.60;81.90
49148;DHT22;41980;45.550;12.070;2023-03-14T21:18:18;11.50;82.40
49148;DHT22;41980;45.550;12.070;2023-03-14T21:24:21;11.50;82.00
49148;DHT22;41980;45.550;12.070;2023-03-14T21:30:23;11.50;82.90
49148;DHT22;41980;45.550;12.070;2023-03-14T21:36:25;11.40;82.70
49148;DHT22;41980;45.550;12.070;2023-03-14T21:42:27;11.30;81.80
49148;DHT22;41980;45.550;12.070;2023-03-14T21:48:29;11.30;82.10
49148;DHT22;41980;45.550;12.070;2023-03-14T21:54:30;11.30;82.10
49148;DHT22;41980;45.550;12.070;2023-03-14T22:00:36;11.40;83.30
49148;DHT22;41980;45.550;12.070;2023-03-14T22:06:38;11.40;82.70
49148;DHT22;41980;45.550;12.070;2023-03-14T22:12:39;11.40;82.20
49148;DHT22;41980;45.550;12.070;2023-03-14T22:18:42;11.40;82.30
49148;DHT22;41980;45.550;12.070;2023-03-14T22:24:44;11.50;83.10
49148;DHT22;41980;45.550;12.070;2023-03-14T22:30:46;11.40;83.20
49148;DHT22;41980;45.550;12.070;2023-03-14T22:36:48;11.40;83.60
49148;DHT22;41980;45.550;12.070;2023-03-14T22:42:51;11.40;83.60
49148;DHT22;41980;45.550;12.070;2023-03-14T22:48:53;11.40;85.60
49148;DHT22;41980;45.550;12.070;2023-03-14T22:54:54;11.30;83.60
49148;DHT22;41980;45.550;12.070;2023-03-14T23:00:56;11.30;84.10
49148;DHT22;41980;45.550;12.070;2023-03-14T23:06:58;11.30;83.80
49148;DHT22;41980;45.550;12.070;2023-03-14T23:13:00;11.20;82.80
49148;DHT22;41980;45.550;12.070;2023-03-14T23:19:02;11.20;83.00
49148;DHT22;41980;45.550;12.070;2023-03-14T23:25:05;11.30;83.00
49148;DHT22;41980;45.550;12.070;2023-03-14T23:31:08;11.30;83.50
49148;DHT22;41980;45.550;12.070;2023-03-14T23:37:10;11.30;83.00
49148;DHT22;41980;45.550;12.070;2023-03-14T23:43:14;11.20;82.50
49148;DHT22;41980;45.550;12.070;2023-03-14T23:49:16;11.20;82.20
49148;DHT22;41980;45.550;12.070;2023-03-14T23:55:18;11.20;82.80
